sensor_id;sensor_type;location;lat;lon;timestamp;pressure;altitude;pressure_sealevel;temperature;humidity
63019;BME280;49105;46.046;10.760;2022-08-19T00:00:50;95199.75;;;17.65;83.42
63019;BME280;49105;46.046;10.760;2022-08-19T00:03:16;95176.13;;;17.67;83.38
63019;BME280;49105;46.046;10.760;2022-08-19T00:05:41;95155.16;;;17.69;83.44
63019;BME280;49105;46.046;10.760;2022-08-19T00:08:07;95147.13;;;17.69;83.37
63019;BME280;49105;46.046;10.760;2022-08-19T00:10:33;95164.66;;;17.67;83.46
63019;BME280;49105;46.046;10.760;2022-08-19T00:12:59;95193.63;;;17.65;83.51
63019;BME280;49105;46.046;10.760;2022-08-19T00:15:24;95211.56;;;17.64;84.05
63019;BME280;49105;46.046;10.760;2022-08-19T00:17:50;95203.53;;;17.64;83.86
63019;BME280;49105;46.046;10.760;2022-08-19T00:20:18;95190.94;;;17.65;84.08
63019;BME280;49105;46.046;10.760;2022-08-19T00:22:45;95196.75;;;17.67;83.97
63019;BME280;49105;46.046;10.760;2022-08-19T00:25:11;95222.19;;;17.73;83.79
63019;BME280;49105;46.046;10.760;2022-08-19T00:27:37;95229.94;;;17.74;83.87
63019;BME280;49105;46.046;10.760;2022-08-19T00:30:04;95232.78;;;17.69;83.42
63019;BME280;49105;46.046;10.760;2022-08-19T00:32:31;95226.72;;;17.60;83.35
63019;BME280;49105;46.046;10.760;2022-08-19T00:34:56;95228.03;;;17.54;83.49
63019;BME280;49105;46.046;10.760;2022-08-19T00:37:23;95212.41;;;17.56;83.75
63019;BME280;49105;46.046;10.760;2022-08-19T00:39:52;95220.44;;;17.56;83.53
63019;BME280;49105;46.046;10.760;2022-08-19T00:42:20;95228.47;;;17.56;83.61
63019;BME280;49105;46.046;10.760;2022-08-19T00:44:46;95216.06;;;17.51;83.65
63019;BME280;49105;46.046;10.760;2022-08-19T00:47:12;95194.22;;;17.49;83.85
63019;BME280;49105;46.046;10.760;2022-08-19T00:49:44;95190.31;;;17.47;83.48
63019;BME280;49105;46.046;10.760;2022-08-19T00:52:16;95184.63;;;17.48;83.76
63019;BME280;49105;46.046;10.760;2022-08-19T00:54:44;95176.72;;;17.52;83.68
63019;BME280;49105;46.046;10.760;2022-08-19T00:57:15;95159.13;;;17.51;83.70
63019;BME280;49105;46.046;10.760;2022-08-19T00:59:45;95144.25;;;17.41;83.51
63019;BME280;49105;46.046;10.760;2022-08-19T01:02:11;95130.75;;;17.38;83.84
63019;BME280;49105;46.046;10.760;2022-08-19T01:04:37;95109.34;;;17.38;83.91
63019;BME280;49105;46.046;10.760;2022-08-19T01:07:03;95110.13;;;17.38;83.91
63019;BME280;49105;46.046;10.760;2022-08-19T01:09:29;95113.00;;;17.33;84.12
63019;BME280;49105;46.046;10.760;2022-08-19T01:11:55;95101.53;;;17.32;84.19
63019;BME280;49105;46.046;10.760;2022-08-19T01:14:21;95097.09;;;17.36;84.00
63019;BME280;49105;46.046;10.760;2022-08-19T01:16:47;95089.06;;;17.36;83.85
63019;BME280;49105;46.046;10.760;2022-08-19T01:19:24;95066.53;;;17.38;84.34
63019;BME280;49105;46.046;10.760;2022-08-19T01:21:58;95062.75;;;17.39;84.51
63019;BME280;49105;46.046;10.760;2022-08-19T01:24:26;95085.28;;;17.38;84.13
63019;BME280;49105;46.046;10.760;2022-08-19T01:26:51;95114.69;;;17.38;84.10
63019;BME280;49105;46.046;10.760;2022-08-19T01:29:17;95144.91;;;17.38;84.26
63019;BME280;49105;46.046;10.760;2022-08-19T01:31:42;95148.81;;;17.41;84.00
63019;BME280;49105;46.046;10.760;2022-08-19T01:34:08;95152.28;;;17.41;84.14
63019;BME280;49105;46.046;10.760;2022-08-19T01:36:41;95159.53;;;17.41;83.78
63019;BME280;49105;46.046;10.760;2022-08-19T01:39:11;95155.25;;;17.40;83.57
63019;BME280;49105;46.046;10.760;2022-08-19T01:41:37;95145.69;;;17.39;83.80
63019;BME280;49105;46.046;10.760;2022-08-19T01:44:05;95172.91;;;17.41;83.67
63019;BME280;49105;46.046;10.760;2022-08-19T01:46:31;95185.81;;;17.39;84.04
63019;BME280;49105;46.046;10.760;2022-08-19T01:48:58;95179.53;;;17.34;83.36
63019;BME280;49105;46.046;10.760;2022-08-19T01:51:23;95165.19;;;17.18;82.42
63019;BME280;49105;46.046;10.760;2022-08-19T01:53:50;95165.38;;;17.13;82.56
63019;BME280;49105;46.046;10.760;2022-08-19T01:56:17;95154.03;;;17.16;82.82
63019;BME280;49105;46.046;10.760;2022-08-19T01:58:47;95151.94;;;17.22;82.64
63019;BME280;49105;46.046;10.760;2022-08-19T02:01:14;95149.66;;;17.11;82.96
63019;BME280;49105;46.046;10.760;2022-08-19T02:03:40;95145.41;;;17.10;83.27
63019;BME280;49105;46.046;10.760;2022-08-19T02:06:05;95145.22;;;17.16;83.11
63019;BME280;49105;46.046;10.760;2022-08-19T02:08:33;95154.63;;;17.22;83.38
63019;BME280;49105;46.046;10.760;2022-08-19T02:11:00;95159.97;;;17.22;83.29
63019;BME280;49105;46.046;10.760;2022-08-19T02:13:26;95159.00;;;17.26;83.27
63019;BME280;49105;46.046;10.760;2022-08-19T02:15:51;95167.94;;;17.30;83.10
63019;BME280;49105;46.046;10.760;2022-08-19T02:18:17;95180.31;;;17.35;83.28
63019;BME280;49105;46.046;10.760;2022-08-19T02:20:43;95174.53;;;17.33;82.54
63019;BME280;49105;46.046;10.760;2022-08-19T02:23:10;95155.53;;;17.26;82.35
63019;BME280;49105;46.046;10.760;2022-08-19T02:25:37;95153.84;;;17.21;82.17
63019;BME280;49105;46.046;10.760;2022-08-19T02:28:03;95142.53;;;17.16;82.25
63019;BME280;49105;46.046;10.760;2022-08-19T02:30:29;95122.91;;;17.11;82.23
63019;BME280;49105;46.046;10.760;2022-08-19T02:32:54;95097.63;;;17.09;82.55
63019;BME280;49105;46.046;10.760;2022-08-19T02:35:20;95092.16;;;17.05;82.81
63019;BME280;49105;46.046;10.760;2022-08-19T02:37:46;95091.22;;;17.01;82.61
63019;BME280;49105;46.046;10.760;2022-08-19T02:40:30;95081.97;;;16.99;82.89
63019;BME280;49105;46.046;10.760;2022-08-19T02:43:04;95074.41;;;17.01;83.20
63019;BME280;49105;46.046;10.760;2022-08-19T02:45:34;95048.72;;;17.08;83.27
63019;BME280;49105;46.046;10.760;2022-08-19T02:47:59;95034.38;;;17.13;82.95
63019;BME280;49105;46.046;10.760;2022-08-19T02:50:25;95039.06;;;17.16;82.74
63019;BME280;49105;46.046;10.760;2022-08-19T02:52:50;95042.66;;;17.20;82.82
63019;BME280;49105;46.046;10.760;2022-08-19T02:55:16;95042.31;;;17.22;82.97
63019;BME280;49105;46.046;10.760;2022-08-19T02:57:41;95043.72;;;17.19;82.42
63019;BME280;49105;46.046;10.760;2022-08-19T03:00:08;95056.78;;;17.21;82.86
63019;BME280;49105;46.046;10.760;2022-08-19T03:02:37;95051.75;;;17.19;82.54
63019;BME280;49105;46.046;10.760;2022-08-19T03:05:06;95040.94;;;17.16;82.55
63019;BME280;49105;46.046;10.760;2022-08-19T03:07:32;95023.13;;;17.20;82.78
63019;BME280;49105;46.046;10.760;2022-08-19T03:09:58;95010.22;;;17.22;82.53
63019;BME280;49105;46.046;10.760;2022-08-19T03:12:23;95004.75;;;17.18;82.63
63019;BME280;49105;46.046;10.760;2022-08-19T03:14:49;95002.19;;;17.22;82.52
63019;BME280;49105;46.046;10.760;2022-08-19T03:17:15;95005.00;;;17.25;82.88
63019;BME280;49105;46.046;10.760;2022-08-19T03:19:40;95006.53;;;17.26;82.84
63019;BME280;49105;46.046;10.760;2022-08-19T03:22:06;95001.84;;;17.23;82.42
63019;BME280;49105;46.046;10.760;2022-08-19T03:24:31;95004.94;;;17.13;82.12
63019;BME280;49105;46.046;10.760;2022-08-19T03:26:57;95016.50;;;17.05;82.00
63019;BME280;49105;46.046;10.760;2022-08-19T03:29:26;95029.41;;;17.03;81.89
63019;BME280;49105;46.046;10.760;2022-08-19T03:31:52;95014.47;;;17.02;81.97
63019;BME280;49105;46.046;10.760;2022-08-19T03:34:24;95024.25;;;16.98;82.22
63019;BME280;49105;46.046;10.760;2022-08-19T03:36:55;95043.25;;;16.84;82.24
63019;BME280;49105;46.046;10.760;2022-08-19T03:39:21;95064.50;;;16.80;82.80
63019;BME280;49105;46.046;10.760;2022-08-19T03:41:48;95076.56;;;16.86;82.39
63019;BME280;49105;46.046;10.760;2022-08-19T03:44:18;95087.72;;;16.89;82.21
63019;BME280;49105;46.046;10.760;2022-08-19T03:46:47;95108.63;;;16.86;82.12
63019;BME280;49105;46.046;10.760;2022-08-19T03:49:14;95119.38;;;16.78;81.59
63019;BME280;49105;46.046;10.760;2022-08-19T03:51:41;95123.63;;;16.70;81.43
63019;BME280;49105;46.046;10.760;2022-08-19T03:54:09;95130.56;;;16.71;81.53
63019;BME280;49105;46.046;10.760;2022-08-19T03:56:36;95150.03;;;16.72;81.59
63019;BME280;49105;46.046;10.760;2022-08-19T03:59:03;95163.25;;;16.68;81.62
63019;BME280;49105;46.046;10.760;2022-08-19T04:01:29;95171.13;;;16.65;81.64
63019;BME280;49105;46.046;10.760;2022-08-19T04:03:56;95175.88;;;16.59;81.77
63019;BME280;49105;46.046;10.760;2022-08-19T04:06:24;95180.91;;;16.60;81.92
63019;BME280;49105;46.046;10.760;2022-08-19T04:08:51;95192.19;;;16.66;82.23
63019;BME280;49105;46.046;10.760;2022-08-19T04:11:21;95192.50;;;16.73;81.86
63019;BME280;49105;46.046;10.760;2022-08-19T04:13:48;95204.16;;;16.60;81.92
63019;BME280;49105;46.046;10.760;2022-08-19T04:16:14;95203.72;;;16.49;82.41
63019;BME280;49105;46.046;10.760;2022-08-19T04:18:40;95206.88;;;16.51;82.35
63019;BME280;49105;46.046;10.760;2022-08-19T04:21:07;95209.22;;;16.53;82.38
63019;BME280;49105;46.046;10.760;2022-08-19T04:23:34;95198.69;;;16.56;82.58
63019;BME280;49105;46.046;10.760;2022-08-19T04:26:02;95198.19;;;16.63;82.64
63019;BME280;49105;46.046;10.760;2022-08-19T04:28:27;95203.00;;;16.70;82.17
63019;BME280;49105;46.046;10.760;2022-08-19T04:30:54;95211.81;;;16.70;82.21
63019;BME280;49105;46.046;10.760;2022-08-19T04:33:24;95214.47;;;16.70;82.08
63019;BME280;49105;46.046;10.760;2022-08-19T04:35:51;95217.34;;;16.65;82.29
63019;BME280;49105;46.046;10.760;2022-08-19T04:38:20;95218.91;;;16.66;81.95
63019;BME280;49105;46.046;10.760;2022-08-19T04:40:49;95222.22;;;16.63;81.80
63019;BME280;49105;46.046;10.760;2022-08-19T04:43:35;95215.97;;;16.59;81.68
63019;BME280;49105;46.046;10.760;2022-08-19T04:46:07;95208.09;;;16.54;81.50
63019;BME280;49105;46.046;10.760;2022-08-19T04:48:34;95203.28;;;16.47;81.87
63019;BME280;49105;46.046;10.760;2022-08-19T04:50:59;95206.91;;;16.43;82.15
63019;BME280;49105;46.046;10.760;2022-08-19T04:53:29;95205.81;;;16.44;82.57
63019;BME280;49105;46.046;10.760;2022-08-19T04:55:56;95210.31;;;16.52;82.42
63019;BME280;49105;46.046;10.760;2022-08-19T04:58:23;95202.91;;;16.57;82.42
63019;BME280;49105;46.046;10.760;2022-08-19T05:00:49;95202.75;;;16.62;82.42
63019;BME280;49105;46.046;10.760;2022-08-19T05:03:15;95202.22;;;16.69;82.41
63019;BME280;49105;46.046;10.760;2022-08-19T05:05:43;95214.03;;;16.68;82.31
63019;BME280;49105;46.046;10.760;2022-08-19T05:08:09;95211.00;;;16.78;82.38
63019;BME280;49105;46.046;10.760;2022-08-19T05:10:35;95213.97;;;16.85;81.87
63019;BME280;49105;46.046;10.760;2022-08-19T05:13:01;95216.16;;;16.92;81.52
63019;BME280;49105;46.046;10.760;2022-08-19T05:15:27;95219.41;;;16.98;82.20
63019;BME280;49105;46.046;10.760;2022-08-19T05:17:52;95211.19;;;17.03;81.95
63019;BME280;49105;46.046;10.760;2022-08-19T05:20:38;95204.78;;;17.04;81.33
63019;BME280;49105;46.046;10.760;2022-08-19T05:23:21;95207.44;;;17.04;81.61
63019;BME280;49105;46.046;10.760;2022-08-19T05:25:47;95216.38;;;17.08;81.67
63019;BME280;49105;46.046;10.760;2022-08-19T05:28:12;95210.19;;;17.16;81.73
63019;BME280;49105;46.046;10.760;2022-08-19T05:30:38;95206.69;;;17.24;81.34
63019;BME280;49105;46.046;10.760;2022-08-19T05:33:06;95198.78;;;17.28;81.29
63019;BME280;49105;46.046;10.760;2022-08-19T05:35:36;95193.75;;;17.26;81.22
63019;BME280;49105;46.046;10.760;2022-08-19T05:38:02;95198.78;;;17.28;81.16
63019;BME280;49105;46.046;10.760;2022-08-19T05:40:27;95188.88;;;17.28;81.12
63019;BME280;49105;46.046;10.760;2022-08-19T05:42:53;95195.44;;;17.31;80.80
63019;BME280;49105;46.046;10.760;2022-08-19T05:45:19;95195.28;;;17.57;80.63
63019;BME280;49105;46.046;10.760;2022-08-19T05:47:46;95191.41;;;17.88;80.31
63019;BME280;49105;46.046;10.760;2022-08-19T05:50:11;95192.72;;;18.15;80.14
63019;BME280;49105;46.046;10.760;2022-08-19T05:52:37;95194.78;;;18.42;80.02
63019;BME280;49105;46.046;10.760;2022-08-19T05:55:03;95193.13;;;18.62;79.47
63019;BME280;49105;46.046;10.760;2022-08-19T05:57:30;95173.06;;;18.80;79.46
63019;BME280;49105;46.046;10.760;2022-08-19T05:59:56;95177.28;;;18.94;79.18
63019;BME280;49105;46.046;10.760;2022-08-19T06:02:22;95174.13;;;19.04;79.27
63019;BME280;49105;46.046;10.760;2022-08-19T06:04:48;95162.97;;;19.14;79.12
63019;BME280;49105;46.046;10.760;2022-08-19T06:07:14;95151.75;;;19.24;79.01
63019;BME280;49105;46.046;10.760;2022-08-19T06:09:40;95155.66;;;19.27;78.98
63019;BME280;49105;46.046;10.760;2022-08-19T06:12:06;95150.41;;;19.30;78.83
63019;BME280;49105;46.046;10.760;2022-08-19T06:14:33;95144.03;;;19.35;78.81
63019;BME280;49105;46.046;10.760;2022-08-19T06:17:00;95150.16;;;19.36;78.78
63019;BME280;49105;46.046;10.760;2022-08-19T06:19:28;95157.91;;;19.25;78.64
63019;BME280;49105;46.046;10.760;2022-08-19T06:21:57;95161.63;;;19.08;78.58
63019;BME280;49105;46.046;10.760;2022-08-19T06:24:25;95166.56;;;18.94;78.88
63019;BME280;49105;46.046;10.760;2022-08-19T06:26:53;95169.03;;;18.74;78.81
63019;BME280;49105;46.046;10.760;2022-08-19T06:29:21;95173.34;;;18.54;79.08
63019;BME280;49105;46.046;10.760;2022-08-19T06:31:49;95167.31;;;18.45;79.36
63019;BME280;49105;46.046;10.760;2022-08-19T06:34:15;95165.63;;;18.41;79.21
63019;BME280;49105;46.046;10.760;2022-08-19T06:36:45;95161.06;;;18.41;79.67
63019;BME280;49105;46.046;10.760;2022-08-19T06:39:14;95158.16;;;18.34;79.29
63019;BME280;49105;46.046;10.760;2022-08-19T06:41:45;95150.66;;;18.27;79.35
63019;BME280;49105;46.046;10.760;2022-08-19T06:44:12;95161.69;;;18.26;79.72
63019;BME280;49105;46.046;10.760;2022-08-19T06:46:38;95151.44;;;18.28;79.53
63019;BME280;49105;46.046;10.760;2022-08-19T06:49:05;95154.91;;;18.41;79.62
63019;BME280;49105;46.046;10.760;2022-08-19T06:51:31;95154.69;;;18.46;79.05
63019;BME280;49105;46.046;10.760;2022-08-19T06:53:58;95163.41;;;18.55;79.18
63019;BME280;49105;46.046;10.760;2022-08-19T06:56:26;95156.75;;;18.73;79.27
63019;BME280;49105;46.046;10.760;2022-08-19T06:59:08;95152.81;;;18.95;78.60
63019;BME280;49105;46.046;10.760;2022-08-19T07:01:39;95164.44;;;18.99;78.09
63019;BME280;49105;46.046;10.760;2022-08-19T07:04:09;95184.09;;;19.03;78.47
63019;BME280;49105;46.046;10.760;2022-08-19T07:06:35;95196.06;;;19.06;78.28
63019;BME280;49105;46.046;10.760;2022-08-19T07:09:03;95195.94;;;19.02;78.09
63019;BME280;49105;46.046;10.760;2022-08-19T07:11:28;95178.31;;;19.01;77.68
63019;BME280;49105;46.046;10.760;2022-08-19T07:13:54;95178.50;;;18.96;77.75
63019;BME280;49105;46.046;10.760;2022-08-19T07:16:20;95173.72;;;19.02;77.89
63019;BME280;49105;46.046;10.760;2022-08-19T07:18:48;95183.06;;;19.08;77.86
63019;BME280;49105;46.046;10.760;2022-08-19T07:21:23;95165.97;;;19.13;77.94
63019;BME280;49105;46.046;10.760;2022-08-19T07:23:49;95162.50;;;19.12;77.74
63019;BME280;49105;46.046;10.760;2022-08-19T07:26:27;95162.50;;;19.12;77.92
63019;BME280;49105;46.046;10.760;2022-08-19T07:28:54;95162.50;;;19.12;77.84
63019;BME280;49105;46.046;10.760;2022-08-19T07:31:22;95163.63;;;19.11;77.76
63019;BME280;49105;46.046;10.760;2022-08-19T07:33:50;95159.28;;;19.06;77.62
63019;BME280;49105;46.046;10.760;2022-08-19T07:36:19;95165.44;;;19.07;77.73
63019;BME280;49105;46.046;10.760;2022-08-19T07:38:47;95160.84;;;19.07;77.54
63019;BME280;49105;46.046;10.760;2022-08-19T07:41:17;95164.97;;;19.05;77.33
63019;BME280;49105;46.046;10.760;2022-08-19T07:43:43;95161.63;;;19.08;77.51
63019;BME280;49105;46.046;10.760;2022-08-19T07:46:11;95169.78;;;19.12;76.95
63019;BME280;49105;46.046;10.760;2022-08-19T07:48:40;95171.44;;;19.16;76.96
63019;BME280;49105;46.046;10.760;2022-08-19T07:51:07;95176.78;;;19.28;76.87
63019;BME280;49105;46.046;10.760;2022-08-19T07:53:34;95171.84;;;19.43;77.10
63019;BME280;49105;46.046;10.760;2022-08-19T07:56:00;95167.78;;;19.61;76.72
63019;BME280;49105;46.046;10.760;2022-08-19T07:58:31;95166.59;;;19.74;76.34
63019;BME280;49105;46.046;10.760;2022-08-19T08:00:56;95172.31;;;19.73;76.32
63019;BME280;49105;46.046;10.760;2022-08-19T08:03:22;95169.84;;;19.80;76.52
63019;BME280;49105;46.046;10.760;2022-08-19T08:06:13;95166.69;;;19.78;76.37
63019;BME280;49105;46.046;10.760;2022-08-19T08:08:58;95169.75;;;19.76;76.52
63019;BME280;49105;46.046;10.760;2022-08-19T08:11:36;95169.94;;;19.83;76.59
63019;BME280;49105;46.046;10.760;2022-08-19T08:14:02;95165.44;;;19.88;76.45
63019;BME280;49105;46.046;10.760;2022-08-19T08:16:34;95170.09;;;19.91;76.28
63019;BME280;49105;46.046;10.760;2022-08-19T08:18:59;95171.75;;;19.95;76.26
63019;BME280;49105;46.046;10.760;2022-08-19T08:21:25;95169.09;;;20.11;76.30
63019;BME280;49105;46.046;10.760;2022-08-19T08:23:51;95152.66;;;20.28;75.67
63019;BME280;49105;46.046;10.760;2022-08-19T08:26:18;95159.00;;;20.36;75.67
63019;BME280;49105;46.046;10.760;2022-08-19T08:28:43;95158.75;;;20.41;75.54
63019;BME280;49105;46.046;10.760;2022-08-19T08:31:09;95163.28;;;20.53;75.44
63019;BME280;49105;46.046;10.760;2022-08-19T08:33:35;95167.78;;;20.65;75.30
63019;BME280;49105;46.046;10.760;2022-08-19T08:36:04;95170.22;;;20.70;75.19
63019;BME280;49105;46.046;10.760;2022-08-19T08:38:31;95165.78;;;20.77;75.14
63019;BME280;49105;46.046;10.760;2022-08-19T08:41:01;95162.31;;;20.77;75.05
63019;BME280;49105;46.046;10.760;2022-08-19T08:43:39;95158.72;;;20.89;75.10
63019;BME280;49105;46.046;10.760;2022-08-19T08:46:13;95164.28;;;20.96;74.67
63019;BME280;49105;46.046;10.760;2022-08-19T08:51:27;95172.00;;;20.97;74.18
63019;BME280;49105;46.046;10.760;2022-08-19T08:53:54;95170.44;;;20.96;74.19
63019;BME280;49105;46.046;10.760;2022-08-19T08:56:21;95179.78;;;21.02;74.12
63019;BME280;49105;46.046;10.760;2022-08-19T08:58:58;95173.38;;;21.07;73.95
63019;BME280;49105;46.046;10.760;2022-08-19T09:01:24;95173.88;;;21.13;73.34
63019;BME280;49105;46.046;10.760;2022-08-19T09:03:50;95170.81;;;21.14;73.05
63019;BME280;49105;46.046;10.760;2022-08-19T09:12:35;95171.09;;;21.09;72.14
63019;BME280;49105;46.046;10.760;2022-08-19T09:14:52;95181.66;;;21.18;72.51
63019;BME280;49105;46.046;10.760;2022-08-19T09:17:26;95175.69;;;21.24;72.38
63019;BME280;49105;46.046;10.760;2022-08-19T09:22:41;95166.16;;;21.46;72.14
63019;BME280;49105;46.046;10.760;2022-08-19T09:25:11;95175.31;;;21.61;72.18
63019;BME280;49105;46.046;10.760;2022-08-19T09:27:38;95171.34;;;21.74;71.18
63019;BME280;49105;46.046;10.760;2022-08-19T09:30:05;95165.09;;;21.90;70.78
63019;BME280;49105;46.046;10.760;2022-08-19T09:32:32;95157.56;;;21.99;70.34
63019;BME280;49105;46.046;10.760;2022-08-19T09:34:58;95158.19;;;22.12;70.16
63019;BME280;49105;46.046;10.760;2022-08-19T09:37:25;95149.56;;;22.02;70.06
63019;BME280;49105;46.046;10.760;2022-08-19T09:39:52;95149.75;;;22.13;70.20
63019;BME280;49105;46.046;10.760;2022-08-19T09:42:17;95144.88;;;22.19;70.04
63019;BME280;49105;46.046;10.760;2022-08-19T09:44:43;95143.19;;;22.34;70.00
63019;BME280;49105;46.046;10.760;2022-08-19T09:47:10;95141.81;;;22.43;69.45
63019;BME280;49105;46.046;10.760;2022-08-19T09:49:37;95143.75;;;22.43;69.50
63019;BME280;49105;46.046;10.760;2022-08-19T09:52:05;95147.56;;;22.42;69.13
63019;BME280;49105;46.046;10.760;2022-08-19T09:54:31;95149.47;;;22.41;68.58
63019;BME280;49105;46.046;10.760;2022-08-19T09:56:58;95141.69;;;22.36;67.23
63019;BME280;49105;46.046;10.760;2022-08-19T09:59:25;95138.75;;;22.45;67.15
63019;BME280;49105;46.046;10.760;2022-08-19T10:01:51;95139.00;;;22.59;67.08
63019;BME280;49105;46.046;10.760;2022-08-19T10:04:16;95129.69;;;22.57;66.73
63019;BME280;49105;46.046;10.760;2022-08-19T10:06:42;95122.25;;;22.50;66.58
63019;BME280;49105;46.046;10.760;2022-08-19T10:09:09;95124.91;;;22.46;66.39
63019;BME280;49105;46.046;10.760;2022-08-19T10:11:36;95119.69;;;22.34;66.51
63019;BME280;49105;46.046;10.760;2022-08-19T10:14:04;95108.44;;;22.28;65.96
63019;BME280;49105;46.046;10.760;2022-08-19T10:16:33;95112.28;;;22.27;66.28
63019;BME280;49105;46.046;10.760;2022-08-19T10:19:00;95104.53;;;22.26;66.14
63019;BME280;49105;46.046;10.760;2022-08-19T10:21:29;95096.09;;;22.27;65.80
63019;BME280;49105;46.046;10.760;2022-08-19T10:23:57;95091.56;;;22.32;66.02
63019;BME280;49105;46.046;10.760;2022-08-19T10:26:29;95088.22;;;22.42;65.97
63019;BME280;49105;46.046;10.760;2022-08-19T10:28:56;95084.09;;;22.48;65.86
63019;BME280;49105;46.046;10.760;2022-08-19T10:31:26;95083.69;;;22.46;65.80
63019;BME280;49105;46.046;10.760;2022-08-19T10:33:52;95080.78;;;22.58;65.87
63019;BME280;49105;46.046;10.760;2022-08-19T10:36:24;95078.75;;;22.78;65.54
63019;BME280;49105;46.046;10.760;2022-08-19T10:38:51;95073.84;;;22.84;65.29
63019;BME280;49105;46.046;10.760;2022-08-19T10:41:23;95076.94;;;22.86;65.08
63019;BME280;49105;46.046;10.760;2022-08-19T10:43:53;95079.28;;;22.87;64.70
63019;BME280;49105;46.046;10.760;2022-08-19T10:46:20;95079.34;;;22.91;64.47
63019;BME280;49105;46.046;10.760;2022-08-19T10:48:47;95068.59;;;22.94;64.44
63019;BME280;49105;46.046;10.760;2022-08-19T10:51:13;95083.25;;;22.93;64.28
63019;BME280;49105;46.046;10.760;2022-08-19T10:53:58;95070.81;;;22.89;63.70
63019;BME280;49105;46.046;10.760;2022-08-19T10:56:24;95063.41;;;22.82;62.89
63019;BME280;49105;46.046;10.760;2022-08-19T10:59:08;95066.47;;;22.81;63.31
63019;BME280;49105;46.046;10.760;2022-08-19T11:01:34;95062.25;;;22.83;63.47
63019;BME280;49105;46.046;10.760;2022-08-19T11:04:03;95053.88;;;22.88;63.30
63019;BME280;49105;46.046;10.760;2022-08-19T11:06:31;95050.09;;;22.93;63.19
63019;BME280;49105;46.046;10.760;2022-08-19T11:08:58;95057.13;;;23.01;63.10
63019;BME280;49105;46.046;10.760;2022-08-19T11:11:25;95055.34;;;23.12;63.06
63019;BME280;49105;46.046;10.760;2022-08-19T11:13:51;95045.41;;;23.20;62.99
63019;BME280;49105;46.046;10.760;2022-08-19T11:16:23;95052.41;;;23.24;63.01
63019;BME280;49105;46.046;10.760;2022-08-19T11:18:54;95047.13;;;23.35;62.86
63019;BME280;49105;46.046;10.760;2022-08-19T11:21:31;95044.44;;;23.35;62.56
63019;BME280;49105;46.046;10.760;2022-08-19T11:24:01;95046.75;;;23.37;61.89
63019;BME280;49105;46.046;10.760;2022-08-19T11:26:28;95043.16;;;23.25;60.91
63019;BME280;49105;46.046;10.760;2022-08-19T11:28:55;95034.22;;;23.18;60.57
63019;BME280;49105;46.046;10.760;2022-08-19T11:31:24;95034.97;;;23.18;61.02
63019;BME280;49105;46.046;10.760;2022-08-19T11:33:50;95038.06;;;23.20;61.22
63019;BME280;49105;46.046;10.760;2022-08-19T11:36:16;95037.72;;;23.22;61.31
63019;BME280;49105;46.046;10.760;2022-08-19T11:38:44;95051.56;;;23.20;61.45
63019;BME280;49105;46.046;10.760;2022-08-19T11:41:10;95049.63;;;23.17;61.28
63019;BME280;49105;46.046;10.760;2022-08-19T11:43:36;95049.53;;;23.10;61.27
63019;BME280;49105;46.046;10.760;2022-08-19T11:46:09;95050.25;;;23.07;61.09
63019;BME280;49105;46.046;10.760;2022-08-19T11:48:36;95051.81;;;23.08;60.95
63019;BME280;49105;46.046;10.760;2022-08-19T11:51:10;95048.75;;;23.10;60.92
63019;BME280;49105;46.046;10.760;2022-08-19T11:53:37;95043.75;;;23.12;60.79
63019;BME280;49105;46.046;10.760;2022-08-19T11:56:04;95041.72;;;23.01;60.38
63019;BME280;49105;46.046;10.760;2022-08-19T11:58:29;95045.53;;;22.97;60.33
63019;BME280;49105;46.046;10.760;2022-08-19T12:00:55;95043.53;;;22.94;60.28
63019;BME280;49105;46.046;10.760;2022-08-19T12:03:21;95037.00;;;22.95;60.71
63019;BME280;49105;46.046;10.760;2022-08-19T12:05:47;95045.56;;;23.00;60.62
63019;BME280;49105;46.046;10.760;2022-08-19T12:08:13;95053.66;;;23.00;60.77
63019;BME280;49105;46.046;10.760;2022-08-19T12:10:39;95043.22;;;22.99;60.90
63019;BME280;49105;46.046;10.760;2022-08-19T12:13:07;95057.19;;;23.05;61.08
63019;BME280;49105;46.046;10.760;2022-08-19T12:15:37;95060.34;;;23.10;61.07
63019;BME280;49105;46.046;10.760;2022-08-19T12:18:04;95055.03;;;23.17;60.94
63019;BME280;49105;46.046;10.760;2022-08-19T12:20:30;95049.34;;;23.26;60.86
63019;BME280;49105;46.046;10.760;2022-08-19T12:22:55;95040.88;;;23.27;60.14
63019;BME280;49105;46.046;10.760;2022-08-19T12:25:21;95037.09;;;23.36;59.73
63019;BME280;49105;46.046;10.760;2022-08-19T12:27:46;95033.81;;;23.49;59.85
63019;BME280;49105;46.046;10.760;2022-08-19T12:30:13;95026.22;;;23.62;59.58
63019;BME280;49105;46.046;10.760;2022-08-19T12:32:39;95032.50;;;23.73;59.24
63019;BME280;49105;46.046;10.760;2022-08-19T12:35:06;95025.22;;;23.77;58.73
63019;BME280;49105;46.046;10.760;2022-08-19T12:37:32;95012.19;;;23.87;58.41
63019;BME280;49105;46.046;10.760;2022-08-19T12:39:58;95015.75;;;23.98;58.50
63019;BME280;49105;46.046;10.760;2022-08-19T12:42:23;95015.88;;;24.12;58.50
63019;BME280;49105;46.046;10.760;2022-08-19T12:44:49;94999.69;;;24.19;57.54
63019;BME280;49105;46.046;10.760;2022-08-19T12:47:16;95013.53;;;24.11;56.65
63019;BME280;49105;46.046;10.760;2022-08-19T12:49:42;95013.53;;;24.07;57.00
63019;BME280;49105;46.046;10.760;2022-08-19T12:52:09;95006.56;;;24.10;57.15
63019;BME280;49105;46.046;10.760;2022-08-19T12:54:36;95005.06;;;24.12;57.41
63019;BME280;49105;46.046;10.760;2022-08-19T12:57:06;94998.09;;;24.11;57.75
63019;BME280;49105;46.046;10.760;2022-08-19T12:59:34;94989.56;;;24.09;57.50
63019;BME280;49105;46.046;10.760;2022-08-19T13:01:59;94981.84;;;24.08;57.39
63019;BME280;49105;46.046;10.760;2022-08-19T13:04:25;94984.19;;;24.13;57.24